Time;durP1;ratioP1;P1;durP2;ratioP2;P2;SDS_P1;SDS_P2;PMS_P1;PMS_P2;Temp;Humidity;BMP_temperature;BMP_pressure;BME280_temperature;BME280_humidity;BME280_pressure;Samples;Min_cycle;Max_cycle;Signal;HPM_P1;HPM_P2
2022/01/02 00:03:04;;;;;;;;;35.40;29.00;;;;;15.68;57.17;99592.09;6191695;28;97168;-63
2022/01/02 00:06:28;;;;;;;;;33.75;28.75;;;;;15.70;57.22;99592.66;6191910;28;97169;-66
2022/01/02 00:09:52;;;;;;;;;33.50;29.25;;;;;15.65;57.38;99581.69;6214218;28;96825;-63
2022/01/02 00:13:18;;;;;;;;;36.00;30.00;;;;;15.62;57.34;99588.44;6215263;28;96601;-65
2022/01/02 00:16:42;;;;;;;;;33.40;29.40;;;;;15.56;57.46;99587.50;6211861;28;96543;-65
2022/01/02 00:20:11;;;;;;;;;33.60;30.60;;;;;15.52;57.61;99588.19;6216211;28;97516;-63
2022/01/02 00:23:41;;;;;;;;;32.20;27.20;;;;;15.56;57.45;99578.50;6213613;28;96604;-65
2022/01/02 00:27:03;;;;;;;;;30.50;28.00;;;;;15.38;57.58;99540.56;6215862;28;96486;-65
2022/01/02 00:30:26;;;;;;;;;30.00;26.00;;;;;15.51;57.63;99573.78;6189078;28;97144;-65
2022/01/02 00:33:50;;;;;;;;;33.00;29.00;;;;;15.48;57.64;99566.09;6191724;28;96757;-64
2022/01/02 00:37:12;;;;;;;;;32.20;29.00;;;;;15.56;57.56;99579.34;6209165;28;97259;-66
2022/01/02 00:40:41;;;;;;;;;24.00;22.00;;;;;15.53;57.58;99587.16;6213816;28;96574;-62
2022/01/02 00:44:09;;;;;;;;;32.00;27.75;;;;;15.55;57.47;99574.13;6216566;28;96615;-65
2022/01/02 00:47:42;;;;;;;;;26.00;23.00;;;;;15.54;57.50;99575.22;6210060;28;97120;-65
2022/01/02 00:51:10;;;;;;;;;26.75;23.75;;;;;15.41;57.50;99564.53;6213923;28;97138;-63
2022/01/02 00:54:34;;;;;;;;;34.40;28.80;;;;;15.47;57.66;99569.84;6214285;28;96889;-66
2022/01/02 00:58:00;;;;;;;;;25.80;22.80;;;;;15.39;57.73;99563.97;6214645;28;97245;-63
2022/01/02 01:01:24;;;;;;;;;31.40;25.40;;;;;15.52;57.79;99580.88;6213739;28;96584;-64
2022/01/02 01:04:49;;;;;;;;;24.20;21.80;;;;;15.56;57.51;99575.78;6210363;28;96551;-65
2022/01/02 01:08:12;;;;;;;;;29.00;25.50;;;;;15.55;57.56;99569.53;6233971;27;97914;-65
2022/01/02 01:11:34;;;;;;;;;26.00;23.00;;;;;15.58;57.61;99576.38;6214074;28;96563;-65
2022/01/02 01:14:57;;;;;;;;;28.80;24.20;;;;;15.52;57.75;99570.00;6212745;28;96920;-64
2022/01/02 01:18:18;;;;;;;;;27.40;22.40;;;;;15.56;57.73;99560.31;6236949;27;98441;-65
2022/01/02 01:21:40;;;;;;;;;28.40;25.00;;;;;15.56;57.67;99556.75;6207288;28;97054;-62
2022/01/02 01:25:08;;;;;;;;;26.33;25.00;;;;;15.57;57.75;99547.56;6210744;28;97211;-62
2022/01/02 01:28:29;;;;;;;;;29.40;25.00;;;;;15.58;57.70;99546.50;6211350;28;97108;-65
2022/01/02 01:31:51;;;;;;;;;30.20;25.80;;;;;15.58;57.72;99549.22;6212969;28;97048;-65
2022/01/02 01:35:14;;;;;;;;;27.00;22.00;;;;;15.63;57.68;99537.63;6206957;28;96655;-65
2022/01/02 01:38:39;;;;;;;;;27.75;23.75;;;;;15.64;57.66;99533.84;6206092;28;97210;-63
2022/01/02 01:42:09;;;;;;;;;27.00;23.00;;;;;15.67;57.50;99542.34;6206221;28;96862;-66
2022/01/02 01:45:32;;;;;;;;;28.20;24.60;;;;;15.74;57.50;99547.63;6211464;28;97089;-67
2022/01/02 01:48:57;;;;;;;;;28.00;25.40;;;;;15.78;57.37;99532.50;6206910;28;96567;-65
2022/01/02 01:52:19;;;;;;;;;27.60;24.20;;;;;15.78;57.23;99530.63;6207730;28;97030;-64
2022/01/02 01:55:41;;;;;;;;;28.00;24.40;;;;;15.81;57.08;99529.31;6207751;28;96444;-66
2022/01/02 01:59:06;;;;;;;;;26.60;23.40;;;;;15.79;57.15;99526.81;6207412;28;97762;-64
2022/01/02 02:02:28;;;;;;;;;24.00;21.60;;;;;15.83;57.17;99510.88;6208394;28;97117;-65
2022/01/02 02:05:49;;;;;;;;;21.00;19.00;;;;;15.81;57.10;99502.94;6236074;27;96511;-63
2022/01/02 02:09:12;;;;;;;;;26.00;21.00;;;;;15.83;57.19;99503.50;6211567;28;97198;-63
2022/01/02 02:12:34;;;;;;;;;23.80;20.40;;;;;15.83;57.15;99514.38;6235533;27;96997;-66
2022/01/02 02:16:02;;;;;;;;;22.00;20.00;;;;;15.85;57.02;99508.72;6206736;28;96438;-64
2022/01/02 02:19:25;;;;;;;;;19.50;17.50;;;;;15.86;57.01;99510.38;6207054;28;97261;-64
2022/01/02 02:22:52;;;;;;;;;23.40;23.00;;;;;15.90;56.88;99509.66;6211592;28;97915;-64
2022/01/02 02:26:14;;;;;;;;;23.60;21.00;;;;;15.93;56.93;99500.22;6210308;28;97063;-65
2022/01/02 02:29:36;;;;;;;;;19.50;18.00;;;;;15.98;56.75;99503.81;6204969;28;97302;-65
2022/01/02 02:33:00;;;;;;;;;22.40;20.40;;;;;15.99;56.53;99499.22;6194781;28;97111;-64
2022/01/02 02:36:22;;;;;;;;;23.60;20.60;;;;;15.98;56.57;99487.50;6202450;28;96449;-63
2022/01/02 02:39:45;;;;;;;;;23.60;20.00;;;;;15.99;56.59;99485.63;6209706;28;97300;-66
2022/01/02 02:43:21;;;;;;;;;23.20;21.20;;;;;15.96;56.65;99481.50;6214765;28;96545;-64
2022/01/02 02:50:23;;;;;;;;;24.00;21.00;;;;;15.95;56.41;99481.75;6215024;28;96781;-64
2022/01/02 02:53:47;;;;;;;;;25.00;21.50;;;;;15.95;56.67;99465.41;6210926;28;97220;-64
2022/01/02 02:57:13;;;;;;;;;25.40;21.60;;;;;15.92;56.71;99468.63;6214544;28;97053;-64
2022/01/02 03:00:36;;;;;;;;;20.00;19.40;;;;;15.93;56.36;99471.09;6208055;28;97178;-63
2022/01/02 03:03:58;;;;;;;;;20.20;18.20;;;;;15.92;56.71;99461.31;6214347;28;96859;-64
2022/01/02 03:07:23;;;;;;;;;23.00;19.40;;;;;15.94;56.70;99456.44;6209933;28;97062;-64
2022/01/02 03:10:45;;;;;;;;;24.00;21.75;;;;;15.96;56.59;99464.34;6209085;28;96726;-61
2022/01/02 03:14:09;;;;;;;;;20.67;17.00;;;;;15.97;56.74;99449.69;6224180;28;97069;-62
2022/01/02 03:17:34;;;;;;;;;23.50;20.50;;;;;15.95;56.56;99444.50;6213812;28;96497;-66
2022/01/02 03:20:56;;;;;;;;;22.20;19.20;;;;;15.96;56.57;99440.72;6208865;28;98013;-62
2022/01/02 03:24:18;;;;;;;;;21.40;17.40;;;;;15.97;56.46;99439.66;6222530;27;96913;-63
2022/01/02 03:27:41;;;;;;;;;17.25;16.25;;;;;15.98;56.46;99433.13;6172682;28;1446124;-65
2022/01/02 03:31:06;;;;;;;;;18.00;17.00;;;;;15.97;56.50;99430.66;6208810;28;97222;-63
2022/01/02 03:34:29;;;;;;;;;18.60;14.60;;;;;15.93;56.50;99429.50;6214777;28;97184;-62
2022/01/02 03:37:51;;;;;;;;;19.00;15.25;;;;;15.94;56.43;99414.81;6210341;28;97112;-64
2022/01/02 03:41:13;;;;;;;;;17.60;15.60;;;;;15.89;56.67;99407.38;6215356;28;97116;-65
2022/01/02 03:44:35;;;;;;;;;18.00;15.60;;;;;15.82;56.62;99400.47;6209889;28;97271;-66
2022/01/02 03:48:00;;;;;;;;;17.00;16.00;;;;;15.82;56.60;99406.72;6214992;28;97129;-64
2022/01/02 03:51:22;;;;;;;;;20.00;18.50;;;;;15.85;56.68;99402.69;6209798;28;96467;-61
2022/01/02 03:54:45;;;;;;;;;15.20;15.20;;;;;15.86;56.44;99397.00;6212397;28;97026;-65
2022/01/02 03:58:06;;;;;;;;;15.80;14.00;;;;;15.84;56.46;99398.31;6209987;28;97213;-64
2022/01/02 04:01:28;;;;;;;;;16.50;14.50;;;;;15.84;56.43;99410.00;6210149;28;97128;-65
2022/01/02 04:04:51;;;;;;;;;15.60;13.20;;;;;15.87;56.37;99412.25;6209879;28;97773;-64
2022/01/02 04:08:13;;;;;;;;;15.60;13.80;;;;;15.87;56.24;99406.81;6214473;28;96775;-66
2022/01/02 04:11:36;;;;;;;;;14.20;11.60;;;;;15.88;56.19;99402.22;6209772;28;96472;-66
2022/01/02 04:14:58;;;;;;;;;14.00;12.00;;;;;15.90;56.18;99402.78;6237853;27;96901;-64
2022/01/02 04:18:19;;;;;;;;;17.40;14.00;;;;;15.86;56.39;99394.28;6214080;28;97570;-62
2022/01/02 04:21:43;;;;;;;;;15.00;13.00;;;;;15.86;56.11;99388.84;6209053;28;96569;-65
2022/01/02 04:25:06;;;;;;;;;13.00;11.25;;;;;15.85;56.30;99389.09;6213847;28;96738;-66
2022/01/02 04:28:29;;;;;;;;;12.40;12.00;;;;;15.87;56.16;99393.22;6212710;28;96423;-64
2022/01/02 04:31:56;;;;;;;;;14.80;12.00;;;;;15.87;56.20;99395.94;6208706;28;96715;-67
2022/01/02 04:35:19;;;;;;;;;13.00;11.00;;;;;15.86;56.03;99402.44;6208905;28;96592;-66
2022/01/02 04:38:42;;;;;;;;;14.00;13.00;;;;;15.87;56.22;99393.22;6214296;28;97117;-63
2022/01/02 04:42:07;;;;;;;;;14.60;14.00;;;;;15.88;56.07;99391.34;6213576;28;97175;-65
2022/01/02 04:45:29;;;;;;;;;16.00;15.00;;;;;15.86;56.18;99377.97;6209048;28;97120;-64
2022/01/02 04:48:51;;;;;;;;;17.00;15.60;;;;;15.84;56.25;99360.25;6213451;28;97221;-64
2022/01/02 04:52:14;;;;;;;;;16.50;13.00;;;;;15.75;56.38;99356.28;6206953;28;97274;-64
2022/01/02 04:55:37;;;;;;;;;14.00;13.60;;;;;15.68;56.33;99356.44;6224181;28;97721;-67
2022/01/02 04:59:00;;;;;;;;;17.00;14.40;;;;;15.65;56.41;99353.34;6207277;28;96826;-64
2022/01/02 05:02:22;;;;;;;;;13.75;12.75;;;;;15.60;56.52;99335.91;6207289;28;96475;-65
2022/01/02 05:05:44;;;;;;;;;15.60;13.60;;;;;15.60;56.37;99340.50;6189704;28;97089;-62
2022/01/02 05:09:06;;;;;;;;;15.00;14.00;;;;;15.50;56.63;99332.94;6208824;28;97151;-63
2022/01/02 05:12:30;;;;;;;;;14.33;13.00;;;;;15.49;56.78;99334.00;6237603;27;97168;-63
2022/01/02 05:15:52;;;;;;;;;15.40;15.40;;;;;15.52;56.83;99324.59;6205616;28;96825;-64
2022/01/02 05:19:16;;;;;;;;;15.20;13.00;;;;;15.54;56.60;99314.31;6235746;27;96533;-62
2022/01/02 05:22:38;;;;;;;;;16.00;14.00;;;;;15.56;56.31;99312.16;6208912;28;97126;-64
2022/01/02 05:26:00;;;;;;;;;15.80;12.80;;;;;15.57;56.24;99311.94;6212870;28;97029;-64
2022/01/02 05:29:27;;;;;;;;;14.00;13.00;;;;;15.63;56.18;99315.56;6203320;28;97768;-65
2022/01/02 05:32:50;;;;;;;;;14.75;13.00;;;;;15.63;56.08;99306.59;6210775;28;97180;-66
2022/01/02 05:36:12;;;;;;;;;13.40;13.00;;;;;15.63;56.12;99301.97;6198589;28;96692;-62
2022/01/02 05:39:34;;;;;;;;;13.00;10.00;;;;;15.62;55.63;99294.88;6190072;28;96590;-63
2022/01/02 05:42:56;;;;;;;;;12.50;10.50;;;;;15.68;55.60;99298.53;6234177;27;97182;-62
2022/01/02 05:46:19;;;;;;;;;13.00;12.00;;;;;15.67;55.56;99272.41;6207620;28;97100;-62
2022/01/02 05:49:42;;;;;;;;;10.00;10.00;;;;;15.69;55.32;99268.38;6206631;28;97026;-64
2022/01/02 05:53:04;;;;;;;;;12.00;11.00;;;;;15.71;55.28;99265.41;6211056;28;96732;-66
2022/01/02 05:56:26;;;;;;;;;10.00;9.40;;;;;15.70;54.97;99261.03;6206131;28;97741;-64
2022/01/02 05:59:48;;;;;;;;;11.00;10.00;;;;;15.73;54.82;99255.94;6205884;28;97211;-66
2022/01/02 06:03:11;;;;;;;;;11.40;10.20;;;;;15.74;54.72;99243.97;6206790;28;97159;-62
2022/01/02 06:06:34;;;;;;;;;11.00;10.00;;;;;15.76;54.69;99241.03;6207626;28;97059;-63
2022/01/02 06:09:56;;;;;;;;;9.00;8.00;;;;;15.77;54.64;99231.81;6236630;27;97183;-65
2022/01/02 06:13:18;;;;;;;;;9.00;8.40;;;;;15.77;54.30;99218.22;6212487;28;96740;-65
2022/01/02 06:16:40;;;;;;;;;8.40;8.40;;;;;15.72;54.25;99218.13;6208138;28;96630;-63
2022/01/02 06:20:04;;;;;;;;;12.00;9.00;;;;;15.71;54.13;99202.88;6207840;28;96981;-65
2022/01/02 06:23:26;;;;;;;;;8.75;8.75;;;;;15.71;53.97;99198.28;6188648;28;96547;-66
2022/01/02 06:26:48;;;;;;;;;8.00;7.00;;;;;15.71;54.00;99192.00;6198393;28;96597;-66
2022/01/02 06:30:11;;;;;;;;;9.00;8.00;;;;;15.74;53.76;99191.50;6187770;28;97611;-65
2022/01/02 06:33:33;;;;;;;;;7.00;7.00;;;;;15.69;53.62;99189.53;6184486;28;96603;-64
2022/01/02 06:36:56;;;;;;;;;8.80;8.20;;;;;15.67;53.52;99185.44;6197979;28;97082;-65
2022/01/02 06:40:20;;;;;;;;;8.00;7.00;;;;;15.59;53.17;99184.75;6183910;28;96467;-65
2022/01/02 06:43:42;;;;;;;;;8.00;7.00;;;;;15.53;53.05;99183.06;6208290;28;97049;-65
2022/01/02 06:47:04;;;;;;;;;7.75;7.00;;;;;15.50;53.16;99188.94;6236035;27;97218;-65
2022/01/02 06:50:26;;;;;;;;;6.60;6.00;;;;;15.41;53.03;99167.84;6207271;28;97749;-63
2022/01/02 06:53:53;;;;;;;;;5.00;5.00;;;;;15.44;53.09;99175.53;6187842;28;97073;-66
2022/01/02 06:57:14;;;;;;;;;5.00;5.00;;;;;15.37;53.02;99178.38;6209699;28;97120;-67
2022/01/02 07:00:37;;;;;;;;;6.00;5.00;;;;;15.31;52.84;99173.94;6183198;28;97202;-67
2022/01/02 07:04:00;;;;;;;;;8.40;8.00;;;;;15.30;52.94;99166.84;6210480;27;97159;-64
2022/01/02 07:07:22;;;;;;;;;7.25;7.00;;;;;15.35;52.91;99156.06;6180753;28;96707;-63
2022/01/02 07:10:45;;;;;;;;;6.40;6.40;;;;;15.32;52.47;99137.56;6190441;28;96507;-65
2022/01/02 07:14:07;;;;;;;;;6.00;4.60;;;;;15.39;52.38;99137.41;6201090;28;97734;-65
2022/01/02 07:17:29;;;;;;;;;5.40;5.00;;;;;15.47;51.80;99123.41;6210675;28;96693;-66
2022/01/02 07:20:51;;;;;;;;;6.20;5.20;;;;;15.45;51.51;99110.03;6221607;28;97533;-65
2022/01/02 07:24:13;;;;;;;;;4.00;4.00;;;;;15.55;51.62;99107.53;6201773;28;96186;-64
2022/01/02 07:27:36;;;;;;;;;6.25;6.00;;;;;15.59;51.39;99102.41;6198693;28;97072;-62
2022/01/02 07:30:58;;;;;;;;;6.00;6.00;;;;;15.71;51.02;99096.88;6201716;28;97134;-63
2022/01/02 07:34:20;;;;;;;;;5.00;4.00;;;;;15.74;50.91;99085.50;6202794;28;96773;-65
2022/01/02 07:37:42;;;;;;;;;8.00;6.60;;;;;15.90;50.99;99092.81;6196745;28;96666;-62
2022/01/02 07:41:06;;;;;;;;;5.00;5.00;;;;;15.92;51.03;99090.66;6202687;28;97233;-66
2022/01/02 07:44:30;;;;;;;;;7.50;6.00;;;;;16.07;50.50;99090.03;6220333;28;98674;-65
2022/01/02 07:47:52;;;;;;;;;5.00;5.00;;;;;16.21;50.19;99080.44;6211913;28;97174;-66
2022/01/02 07:51:14;;;;;;;;;6.00;6.00;;;;;16.27;49.92;99079.44;6207735;28;97131;-65
2022/01/02 07:54:38;;;;;;;;;4.20;4.00;;;;;16.29;49.10;99063.66;6213186;28;97767;-63
2022/01/02 07:58:01;;;;;;;;;4.60;4.00;;;;;16.30;49.33;99059.88;6213988;28;97020;-65
2022/01/02 08:01:25;;;;;;;;;4.60;4.60;;;;;16.72;47.99;99066.34;6197669;28;97254;-63
2022/01/02 08:04:48;;;;;;;;;5.00;5.00;;;;;17.34;47.05;99054.91;6199625;28;96578;-62
2022/01/02 08:08:10;;;;;;;;;5.00;5.00;;;;;17.45;46.17;99047.59;6198962;28;97235;-63
2022/01/02 08:11:31;;;;;;;;;6.00;5.00;;;;;17.55;46.23;99053.13;6197909;28;97695;-67
2022/01/02 08:15:09;;;;;;;;;6.00;5.00;;;;;17.62;45.39;99042.84;6195144;28;96497;-65
2022/01/02 08:18:33;;;;;;;;;7.00;6.00;;;;;17.52;44.92;99032.69;6190851;28;96758;-65
2022/01/02 08:21:55;;;;;;;;;5.00;5.00;;;;;17.58;44.86;99031.63;6196562;28;97260;-65
2022/01/02 08:25:17;;;;;;;;;4.00;4.00;;;;;17.56;44.81;99016.59;6212260;28;97138;-64
2022/01/02 08:28:39;;;;;;;;;5.60;5.00;;;;;17.58;45.07;99009.00;6212191;28;97104;-64
2022/01/02 08:32:00;;;;;;;;;5.50;5.00;;;;;17.58;44.07;99009.81;6211414;28;97608;-62
2022/01/02 08:35:24;;;;;;;;;6.00;5.00;;;;;17.84;44.71;99002.59;6210470;28;96997;-64
2022/01/02 08:38:47;;;;;;;;;5.40;4.40;;;;;18.01;43.77;98988.78;6211454;28;96852;-61
2022/01/02 08:42:09;;;;;;;;;5.00;5.00;;;;;18.35;43.39;98986.41;6212599;28;96989;-64
2022/01/02 08:45:31;;;;;;;;;6.00;6.00;;;;;18.50;42.79;98992.72;6212159;28;97096;-62
2022/01/02 08:48:53;;;;;;;;;4.00;4.00;;;;;18.71;42.95;98990.06;6212793;28;96984;-66
2022/01/02 08:52:22;;;;;;;;;7.00;6.00;;;;;18.79;42.04;98987.59;6213299;28;97122;-66
2022/01/02 08:55:44;;;;;;;;;5.00;5.00;;;;;18.78;42.07;98985.94;6213464;28;97431;-66
2022/01/02 08:59:06;;;;;;;;;6.00;5.25;;;;;19.10;41.25;98982.13;6212701;28;97050;-63
2022/01/02 09:02:28;;;;;;;;;6.00;4.00;;;;;19.57;40.64;98973.59;6209526;28;96926;-64
2022/01/02 09:05:50;;;;;;;;;6.00;5.60;;;;;20.14;39.10;98973.06;6209951;28;97127;-64
2022/01/02 09:09:13;;;;;;;;;6.00;5.60;;;;;20.47;38.39;98964.16;6215278;28;96795;-63
2022/01/02 09:12:35;;;;;;;;;4.00;4.00;;;;;21.02;38.41;98954.66;6212353;28;96947;-64
2022/01/02 09:15:57;;;;;;;;;5.40;5.00;;;;;21.44;36.60;98942.22;6214197;28;97288;-64
2022/01/02 09:19:19;;;;;;;;;6.00;5.00;;;;;22.71;33.92;98942.22;6211898;28;97368;-63
2022/01/02 09:22:41;;;;;;;;;6.75;6.00;;;;;23.96;32.15;98944.84;6211294;28;97079;-68
2022/01/02 09:26:04;;;;;;;;;4.00;4.00;;;;;24.83;31.15;98933.47;6203341;28;97056;-65
2022/01/02 09:29:26;;;;;;;;;5.00;4.20;;;;;24.95;30.40;98928.25;6194833;28;97324;-65
2022/01/02 09:32:54;;;;;;;;;4.00;4.00;;;;;25.21;29.76;98898.06;6198352;28;99042;-66
2022/01/02 09:36:16;;;;;;;;;5.60;4.60;;;;;25.56;28.97;98921.91;6202579;28;97802;-63
2022/01/02 09:39:38;;;;;;;;;6.00;5.20;;;;;25.78;28.54;98908.03;6201730;28;97289;-64
2022/01/02 09:43:06;;;;;;;;;5.00;5.00;;;;;25.79;29.21;98897.81;6209586;28;96967;-64
2022/01/02 09:46:29;;;;;;;;;4.00;4.00;;;;;25.96;28.75;98897.84;6211537;28;97186;-64
2022/01/02 09:49:51;;;;;;;;;6.00;5.00;;;;;25.43;29.04;98895.22;6205170;28;97729;-64
2022/01/02 09:53:13;;;;;;;;;9.50;8.50;;;;;24.88;30.32;98890.06;6212749;28;96581;-64
2022/01/02 09:56:16;;;;;;;;;5.00;5.00;;;;;24.56;29.92;98895.84;6211090;28;96919;-63
2022/01/02 09:59:21;;;;;;;;;6.25;6.00;;;;;24.67;30.87;98890.88;6209318;28;96804;-65
2022/01/02 10:02:25;;;;;;;;;5.60;5.60;;;;;25.10;30.14;98877.38;6204607;28;97474;-65
2022/01/02 10:05:30;;;;;;;;;6.00;5.75;;;;;25.42;29.04;98888.88;6190877;28;96771;-64
2022/01/02 10:08:35;;;;;;;;;5.20;4.00;;;;;25.24;29.47;98880.84;6201331;28;96822;-64
2022/01/02 10:11:40;;;;;;;;;5.50;5.00;;;;;24.99;29.83;98877.66;6194601;28;96828;-65
2022/01/02 10:14:45;;;;;;;;;5.00;4.50;;;;;24.93;30.01;98875.34;6225669;27;97844;-64
2022/01/02 10:17:59;;;;;;;;;6.50;5.50;;;;;25.27;29.46;98875.50;6192904;28;97540;-64
2022/01/02 10:21:03;;;;;;;;;6.75;6.00;;;;;25.74;28.67;98864.81;6187862;28;96762;-63
2022/01/02 10:24:27;;;;;;;;;5.00;4.40;;;;;26.17;27.71;98860.16;6184688;28;97930;-64
2022/01/02 10:27:31;;;;;;;;;6.60;6.00;;;;;26.85;27.26;98857.69;6184639;28;96610;-65
2022/01/02 10:30:46;;;;;;;;;5.00;5.00;;;;;27.25;26.68;98861.81;6188551;28;96680;-64
2022/01/02 10:33:52;;;;;;;;;6.00;5.00;;;;;27.56;25.93;98839.41;6186671;28;97665;-65
2022/01/02 10:36:55;;;;;;;;;5.00;5.00;;;;;28.38;25.96;98844.19;6174001;28;99536;-65
2022/01/02 10:39:58;;;;;;;;;4.00;4.00;;;;;28.08;25.68;98834.31;6188487;28;97553;-63
2022/01/02 10:43:04;;;;;;;;;3.60;3.00;;;;;27.40;25.90;98830.00;6185416;28;97177;-65
2022/01/02 10:46:09;;;;;;;;;5.40;5.00;;;;;26.77;26.93;98825.34;6192082;28;97478;-65
2022/01/02 10:49:12;;;;;;;;;6.00;5.20;;;;;26.00;27.83;98826.19;6193582;28;97800;-65
2022/01/02 10:52:21;;;;;;;;;5.00;4.50;;;;;25.21;28.74;98834.59;6199315;28;97455;-64
2022/01/02 10:55:26;;;;;;;;;6.40;5.40;;;;;24.63;29.45;98823.72;6203592;28;96677;-66
2022/01/02 10:58:29;;;;;;;;;8.00;8.00;;;;;24.09;30.65;98812.59;6214261;28;97535;-65
2022/01/02 11:01:34;;;;;;;;;7.50;6.50;;;;;23.63;31.51;98807.34;6212377;28;96824;-66
2022/01/02 11:04:48;;;;;;;;;7.00;7.00;;;;;23.40;31.75;98804.81;6207827;28;96757;-65
2022/01/02 11:07:54;;;;;;;;;5.20;5.20;;;;;23.21;32.10;98797.47;6208165;28;96659;-66
2022/01/02 11:10:57;;;;;;;;;7.00;6.50;;;;;22.96;32.73;98799.94;6214382;28;97414;-66
2022/01/02 11:14:01;;;;;;;;;8.50;7.50;;;;;22.67;33.09;98786.44;6213203;28;97446;-67
2022/01/02 11:17:06;;;;;;;;;6.60;6.00;;;;;22.51;33.96;98780.38;6204921;28;97519;-65
2022/01/02 11:20:11;;;;;;;;;6.00;5.00;;;;;22.23;34.42;98779.50;6201681;28;96811;-64
2022/01/02 11:23:21;;;;;;;;;6.00;6.00;;;;;21.91;34.90;98765.72;6219945;27;96741;-65
2022/01/02 11:26:38;;;;;;;;;6.00;6.00;;;;;21.53;35.33;98757.50;6197722;28;97129;-65
2022/01/02 11:29:49;;;;;;;;;8.40;7.40;;;;;21.19;35.82;98751.41;6196588;28;97155;-67
2022/01/02 11:33:02;;;;;;;;;8.00;7.00;;;;;20.83;36.47;98739.19;6201421;28;97882;-65
2022/01/02 11:36:24;;;;;;;;;7.00;7.00;;;;;20.64;37.34;98733.66;6202895;28;97498;-66
2022/01/02 11:39:47;;;;;;;;;7.60;7.00;;;;;20.41;37.53;98729.81;6205736;28;96715;-63
2022/01/02 11:42:50;;;;;;;;;9.00;8.00;;;;;20.22;38.16;98718.72;6201286;28;97724;-65
2022/01/02 11:45:53;;;;;;;;;5.40;5.00;;;;;20.14;38.17;98722.06;6188750;28;96925;-65
2022/01/02 11:49:36;;;;;;;;;7.00;6.60;;;;;19.96;38.52;98722.78;6188148;28;97555;-65
2022/01/02 11:52:40;;;;;;;;;8.00;7.50;;;;;19.88;38.79;98707.81;6186499;28;97609;-64
2022/01/02 11:55:45;;;;;;;;;12.50;10.50;;;;;19.85;39.19;98710.28;6188505;28;98128;-66
2022/01/02 11:58:51;;;;;;;;;6.00;6.00;;;;;19.77;39.68;98706.25;6212750;27;98565;-66
2022/01/02 12:01:58;;;;;;;;;7.00;7.00;;;;;19.67;40.27;98700.88;6208959;28;96844;-64
2022/01/02 12:05:12;;;;;;;;;9.00;9.00;;;;;19.61;39.96;98695.72;6200594;28;97408;-65
2022/01/02 12:08:34;;;;;;;;;11.00;11.00;;;;;19.54;40.34;98696.06;6187430;28;97113;-65
2022/01/02 12:11:48;;;;;;;;;10.00;9.00;;;;;19.50;40.86;98703.16;6203546;28;96396;-64
2022/01/02 12:14:53;;;;;;;;;13.00;11.00;;;;;19.40;40.83;98697.75;6212653;28;97488;-64
2022/01/02 12:18:07;;;;;;;;;13.20;12.00;;;;;19.39;40.87;98691.47;6212187;28;97442;-65
2022/01/02 12:21:11;;;;;;;;;16.00;14.00;;;;;19.28;40.59;98697.28;6211491;28;97994;-65
2022/01/02 12:24:30;;;;;;;;;15.20;14.00;;;;;19.26;41.19;98692.09;6209682;28;96710;-66
2022/01/02 12:27:35;;;;;;;;;14.40;13.40;;;;;19.28;41.34;98694.56;6210720;28;97188;-64
2022/01/02 12:30:40;;;;;;;;;17.00;14.40;;;;;19.35;41.31;98679.44;6213143;28;96481;-65
2022/01/02 12:33:44;;;;;;;;;15.00;14.40;;;;;19.45;40.76;98689.53;6211360;28;97500;-64
2022/01/02 12:36:49;;;;;;;;;15.00;15.00;;;;;19.20;40.50;98615.91;6212923;28;97538;-66
2022/01/02 12:39:54;;;;;;;;;12.00;12.00;;;;;19.82;40.51;98689.81;6212573;28;96634;-64
2022/01/02 12:42:58;;;;;;;;;13.00;12.00;;;;;19.97;40.33;98686.13;6213622;28;96707;-66
2022/01/02 12:46:01;;;;;;;;;18.00;15.40;;;;;20.10;40.55;98681.88;6211854;28;97085;-65
2022/01/02 12:49:07;;;;;;;;;14.50;14.50;;;;;20.16;40.57;98686.22;6210194;28;97531;-65
2022/01/02 12:52:12;;;;;;;;;18.00;17.00;;;;;20.22;40.36;98676.84;6214096;27;97081;-66
2022/01/02 12:55:17;;;;;;;;;18.60;16.60;;;;;20.44;40.04;98676.38;6211962;28;97583;-65
2022/01/02 12:58:23;;;;;;;;;16.00;15.50;;;;;20.68;39.75;98666.22;6207305;28;98549;-66
2022/01/02 13:01:26;;;;;;;;;23.60;18.00;;;;;20.77;39.55;98660.94;6211751;28;96540;-65
2022/01/02 13:04:31;;;;;;;;;17.25;17.00;;;;;20.71;39.55;98655.50;6209031;28;99537;-66
2022/01/02 13:07:37;;;;;;;;;18.00;16.00;;;;;20.59;39.68;98655.09;6211979;28;97501;-65
2022/01/02 13:10:41;;;;;;;;;17.00;16.00;;;;;20.52;39.67;98665.59;6201590;28;98409;-65
2022/01/02 13:13:50;;;;;;;;;15.50;15.00;;;;;20.38;39.50;98653.69;6233952;27;98008;-65
2022/01/02 13:16:54;;;;;;;;;16.00;15.00;;;;;20.21;39.69;98664.28;6210657;28;97367;-66
2022/01/02 13:19:59;;;;;;;;;17.20;15.00;;;;;20.01;40.07;98659.81;6213332;28;97386;-63
2022/01/02 13:23:03;;;;;;;;;19.00;16.00;;;;;19.85;40.41;98653.66;6212665;28;96714;-63
2022/01/02 13:26:18;;;;;;;;;18.40;16.00;;;;;19.70;40.90;98659.25;6205812;28;97906;-63
2022/01/02 13:29:23;;;;;;;;;19.00;18.60;;;;;19.58;40.87;98660.75;6207178;28;97502;-64
2022/01/02 13:32:28;;;;;;;;;20.00;17.00;;;;;19.40;41.50;98662.22;6222624;28;96886;-65
2022/01/02 13:35:32;;;;;;;;;19.00;19.00;;;;;19.24;41.95;98663.41;6210079;28;97087;-64
2022/01/02 13:38:49;;;;;;;;;20.00;17.00;;;;;18.97;42.21;98655.63;6205428;28;97511;-62
2022/01/02 13:41:54;;;;;;;;;18.00;17.00;;;;;18.89;42.41;98653.50;6209959;28;97400;-62
2022/01/02 13:45:09;;;;;;;;;21.75;20.50;;;;;18.80;42.70;98652.47;6207579;28;96873;-64
2022/01/02 13:48:32;;;;;;;;;22.60;20.60;;;;;18.64;43.18;98646.25;6206826;28;97420;-65
2022/01/02 13:51:35;;;;;;;;;21.00;19.00;;;;;18.55;43.33;98646.03;6205713;28;97131;-61
2022/01/02 13:54:39;;;;;;;;;20.50;19.00;;;;;18.43;43.58;98650.94;6194464;28;97510;-62
2022/01/02 13:57:46;;;;;;;;;19.00;17.50;;;;;18.24;44.17;98647.19;6199612;28;98035;-64
2022/01/02 14:00:55;;;;;;;;;18.60;18.00;;;;;18.16;44.13;98640.38;6244279;27;96703;-65
2022/01/02 14:04:00;;;;;;;;;24.40;20.40;;;;;18.07;44.60;98644.78;6207067;28;96523;-64
2022/01/02 14:07:08;;;;;;;;;20.25;20.00;;;;;18.01;44.71;98645.06;6206263;28;98409;-63
2022/01/02 14:10:11;;;;;;;;;22.40;19.80;;;;;17.94;44.99;98642.59;6210459;28;97466;-66
2022/01/02 14:13:17;;;;;;;;;22.67;20.00;;;;;17.89;45.13;98644.50;6202852;28;97553;-65
2022/01/02 14:16:43;;;;;;;;;24.00;20.00;;;;;17.81;45.39;98645.91;6209224;28;97616;-65
2022/01/02 14:19:46;;;;;;;;;20.60;18.00;;;;;17.78;45.65;98657.38;6213259;28;97486;-63
2022/01/02 14:22:51;;;;;;;;;23.00;20.60;;;;;17.74;45.68;98645.34;6219035;28;99344;-64
2022/01/02 14:25:55;;;;;;;;;23.00;21.00;;;;;17.67;45.82;98634.75;6213913;28;97177;-65
2022/01/02 14:29:02;;;;;;;;;24.67;21.67;;;;;17.60;46.00;98631.47;6223824;27;97698;-64
2022/01/02 14:32:06;;;;;;;;;22.40;20.60;;;;;17.60;46.09;98627.91;6223668;28;97177;-64
2022/01/02 14:35:10;;;;;;;;;23.60;22.00;;;;;17.53;46.10;98611.00;6223699;28;97644;-64
2022/01/02 14:38:14;;;;;;;;;20.80;18.20;;;;;17.46;46.18;98607.72;6213095;28;97408;-65
2022/01/02 14:41:18;;;;;;;;;20.00;19.00;;;;;17.39;46.47;98599.84;6214468;28;96767;-64
2022/01/02 14:44:23;;;;;;;;;21.20;19.00;;;;;17.36;47.04;98594.91;6215641;28;97164;-64
2022/01/02 14:47:26;;;;;;;;;21.60;20.00;;;;;17.35;46.57;98601.44;6213153;28;97851;-65
2022/01/02 14:50:30;;;;;;;;;20.00;18.20;;;;;17.31;46.63;98611.25;6214497;28;96631;-64
2022/01/02 14:53:36;;;;;;;;;24.40;22.00;;;;;17.25;46.71;98612.38;6229380;28;97454;-64
2022/01/02 14:56:39;;;;;;;;;23.00;21.00;;;;;17.25;46.57;98596.81;6213793;28;96685;-63
2022/01/02 14:59:49;;;;;;;;;25.00;25.00;;;;;17.19;46.58;98586.19;6213715;28;97740;-63
2022/01/02 15:02:52;;;;;;;;;25.00;22.20;;;;;17.17;46.69;98588.38;6211988;28;96745;-65
2022/01/02 15:05:56;;;;;;;;;27.40;24.00;;;;;16.89;46.72;98543.41;6213086;28;97590;-65
2022/01/02 15:09:00;;;;;;;;;23.60;22.60;;;;;17.13;46.58;98581.84;6210945;28;98038;-64
2022/01/02 15:12:08;;;;;;;;;25.00;23.50;;;;;17.14;46.74;98586.19;6214004;28;97715;-67
2022/01/02 15:15:14;;;;;;;;;27.00;24.20;;;;;17.08;47.23;98570.94;6208710;28;98597;-63
2022/01/02 15:18:20;;;;;;;;;29.40;24.00;;;;;16.90;47.50;98577.72;6211922;28;99677;-65
2022/01/02 15:21:24;;;;;;;;;25.40;24.00;;;;;16.82;47.79;98580.97;6213172;28;96529;-63